Time;durP1;ratioP1;P1;durP2;ratioP2;P2;SDS_P1;SDS_P2;PMS_P1;PMS_P2;Temp;Humidity;BMP_temperature;BMP_pressure;BME280_temperature;BME280_humidity;BME280_pressure;Samples;Min_cycle;Max_cycle;Signal;HPM_P1;HPM_P2
2022/05/30 00:01:24;;;;;;;;;;;;;;;14.67;74.64;99268.73;1641362;87;20094;-72
2022/05/30 00:03:50;;;;;;;;;;;;;;;14.63;74.94;99279.45;1641061;87;20448;-71
2022/05/30 00:06:20;;;;;;;;;;;;;;;14.60;75.31;99289.81;1641031;87;20512;-72
2022/05/30 00:08:46;;;;;;;;;;;;;;;14.57;75.51;99283.60;1641281;87;21153;-73
2022/05/30 00:11:14;;;;;;;;;;;;;;;14.57;75.77;99287.75;1641076;87;20140;-73
2022/05/30 00:13:41;;;;;;;;;;;;;;;14.56;76.04;99285.56;1641375;87;20090;-73
2022/05/30 00:16:14;;;;;;;;;;;;;;;14.56;76.50;99288.90;1641068;87;20157;-72
2022/05/30 00:18:42;;;;;;;;;;;;;;;14.53;76.71;99286.25;1641065;87;20152;-72
2022/05/30 00:21:08;;;;;;;;;;;;;;;14.53;76.87;99287.64;1641072;87;21153;-72
2022/05/30 00:23:35;;;;;;;;;;;;;;;14.52;77.06;99282.69;1640989;87;20388;-72
2022/05/30 00:26:07;;;;;;;;;;;;;;;14.50;77.18;99269.80;1641033;86;20098;-72
2022/05/30 00:28:34;;;;;;;;;;;;;;;14.45;77.42;99242.42;1641138;87;20150;-72
2022/05/30 00:31:00;;;;;;;;;;;;;;;14.38;77.97;99220.11;1641191;87;20094;-72
2022/05/30 00:33:28;;;;;;;;;;;;;;;14.29;78.22;99217.26;1641023;87;21909;-72
2022/05/30 00:35:54;;;;;;;;;;;;;;;14.19;78.82;99225.44;1641087;87;20090;-72
2022/05/30 00:38:20;;;;;;;;;;;;;;;14.13;79.51;99222.11;1641088;87;20126;-72
2022/05/30 00:40:47;;;;;;;;;;;;;;;14.09;79.81;99217.63;1641182;87;20082;-72
2022/05/30 00:43:22;;;;;;;;;;;;;;;14.06;80.26;99217.75;1641100;87;20126;-72
2022/05/30 00:45:48;;;;;;;;;;;;;;;14.03;80.88;99210.73;1641162;87;21181;-72
2022/05/30 00:48:17;;;;;;;;;;;;;;;13.98;81.48;99204.88;1641026;87;20078;-72
2022/05/30 00:50:44;;;;;;;;;;;;;;;13.94;81.97;99194.88;1641215;87;20095;-71
2022/05/30 00:53:12;;;;;;;;;;;;;;;13.88;82.61;99189.59;1641062;87;20106;-71
2022/05/30 00:55:39;;;;;;;;;;;;;;;13.85;82.90;99188.93;1641176;87;20129;-70
2022/05/30 00:58:06;;;;;;;;;;;;;;;13.82;83.56;99188.24;1641040;87;21174;-70
2022/05/30 01:00:33;;;;;;;;;;;;;;;13.78;83.64;99185.14;1640474;87;20078;-70
2022/05/30 01:08:32;;;;;;;;;;;;;;;13.67;84.90;99201.34;1641024;87;20122;-70
2022/05/30 01:10:59;;;;;;;;;;;;;;;13.60;85.42;99203.87;1641326;87;20669;-70
2022/05/30 01:13:29;;;;;;;;;;;;;;;13.56;86.04;99201.56;1641134;87;20090;-69
2022/05/30 01:15:56;;;;;;;;;;;;;;;13.52;86.20;99195.13;1641307;87;20426;-70
2022/05/30 01:18:34;;;;;;;;;;;;;;;13.48;86.53;99190.06;1641136;87;20126;-70
2022/05/30 01:21:28;;;;;;;;;;;;;;;13.43;87.11;99184.78;1632754;87;20122;-70
2022/05/30 01:24:15;;;;;;;;;;;;;;;13.40;87.47;99183.52;1641245;87;20082;-70
2022/05/30 01:27:17;;;;;;;;;;;;;;;13.36;88.05;99170.75;1587998;87;20078;-70
2022/05/30 01:29:48;;;;;;;;;;;;;;;13.32;88.65;99171.20;1641157;87;20473;-70
2022/05/30 01:32:20;;;;;;;;;;;;;;;13.31;89.40;99169.02;1621021;87;20187;-70
2022/05/30 01:34:48;;;;;;;;;;;;;;;13.30;89.78;99161.09;1641186;87;20090;-70
2022/05/30 01:37:14;;;;;;;;;;;;;;;13.31;90.25;99159.38;1620596;87;21295;-70
2022/05/30 01:39:42;;;;;;;;;;;;;;;13.33;90.46;99157.08;1620829;87;38491;-70
2022/05/30 01:42:10;;;;;;;;;;;;;;;13.37;90.90;99153.06;1642074;87;20507;-71
2022/05/30 01:44:37;;;;;;;;;;;;;;;13.39;90.78;99147.44;1617311;87;20104;-71
2022/05/30 01:47:04;;;;;;;;;;;;;;;13.39;91.05;99139.17;1616373;89;20456;-71
2022/05/30 01:49:31;;;;;;;;;;;;;;;13.40;91.37;99135.84;1637292;87;21816;-71
2022/05/30 01:51:58;;;;;;;;;;;;;;;13.39;91.77;99139.73;1642636;87;20437;-71
2022/05/30 01:54:25;;;;;;;;;;;;;;;13.37;92.11;99136.52;1642577;87;20078;-71
2022/05/30 01:57:04;;;;;;;;;;;;;;;13.35;92.29;99132.73;1578684;89;21609;-71
2022/05/30 01:59:33;;;;;;;;;;;;;;;13.36;92.86;99133.53;1618902;88;20480;-72
2022/05/30 02:02:05;;;;;;;;;;;;;;;13.34;93.01;99128.94;1638481;87;21192;-72
2022/05/30 02:04:33;;;;;;;;;;;;;;;13.32;93.44;99123.77;1645079;87;20453;-71
2022/05/30 02:06:59;;;;;;;;;;;;;;;13.30;93.62;99121.93;1644984;86;20129;-72
2022/05/30 02:09:26;;;;;;;;;;;;;;;13.29;93.93;99114.81;1644886;87;20090;-71
2022/05/30 02:11:52;;;;;;;;;;;;;;;13.28;94.35;99118.74;1645045;86;20105;-72
2022/05/30 02:14:26;;;;;;;;;;;;;;;13.28;94.33;99124.83;1644388;87;21802;-72
2022/05/30 02:17:04;;;;;;;;;;;;;;;13.28;94.38;99134.48;1644949;87;20121;-72
2022/05/30 02:19:37;;;;;;;;;;;;;;;13.28;94.43;99138.04;1644946;86;20099;-72
2022/05/30 02:22:16;;;;;;;;;;;;;;;13.29;94.63;99141.57;1644915;86;20090;-71
2022/05/30 02:24:42;;;;;;;;;;;;;;;13.28;94.99;99138.61;1644980;87;20417;-71
2022/05/30 02:27:14;;;;;;;;;;;;;;;13.28;94.98;99145.50;1644867;86;20536;-71
2022/05/30 02:29:42;;;;;;;;;;;;;;;13.30;95.17;99154.20;1659068;86;20162;-71
2022/05/30 02:32:09;;;;;;;;;;;;;;;13.30;95.41;99155.58;1644877;87;20161;-71
2022/05/30 02:37:22;;;;;;;;;;;;;;;13.31;95.68;99158.57;1659107;85;20117;-71
2022/05/30 02:39:48;;;;;;;;;;;;;;;13.30;95.83;99176.26;1648963;87;21119;-71
2022/05/30 02:42:33;;;;;;;;;;;;;;;13.29;96.08;99178.20;1678813;84;20101;-72
2022/05/30 02:45:00;;;;;;;;;;;;;;;13.30;96.06;99176.26;1669419;86;20129;-71
2022/05/30 02:47:27;;;;;;;;;;;;;;;13.28;96.50;99195.92;1700523;84;20148;-71
2022/05/30 02:49:55;;;;;;;;;;;;;;;13.28;96.62;99202.81;1669025;86;20157;-71
2022/05/30 02:52:21;;;;;;;;;;;;;;;13.28;96.62;99213.04;1700887;84;21193;-71
2022/05/30 02:54:48;;;;;;;;;;;;;;;13.28;96.81;99208.91;1669360;86;20117;-71
2022/05/30 02:57:19;;;;;;;;;;;;;;;13.28;97.00;99204.20;1666988;85;20236;-72
2022/05/30 02:59:45;;;;;;;;;;;;;;;13.27;97.16;99199.83;1664374;86;20153;-72
2022/05/30 03:02:12;;;;;;;;;;;;;;;13.26;97.37;99194.09;1700634;84;20101;-72
2022/05/30 03:04:38;;;;;;;;;;;;;;;13.26;97.73;99180.88;1669614;86;21746;-72
2022/05/30 03:07:06;;;;;;;;;;;;;;;13.27;97.83;99182.48;1647553;86;20174;-72
2022/05/30 03:09:34;;;;;;;;;;;;;;;13.28;97.78;99185.47;1614805;89;20093;-71
2022/05/30 03:12:20;;;;;;;;;;;;;;;13.29;97.72;99173.27;1614758;89;20125;-70
2022/05/30 03:14:49;;;;;;;;;;;;;;;13.33;97.57;99163.17;1672472;86;20083;-70
2022/05/30 03:17:15;;;;;;;;;;;;;;;13.37;97.28;99168.23;1672345;85;21268;-71
2022/05/30 03:19:43;;;;;;;;;;;;;;;13.38;96.99;99147.78;1672337;86;20100;-71
2022/05/30 03:22:10;;;;;;;;;;;;;;;13.40;97.79;99157.31;1672289;86;20119;-71
2022/05/30 03:24:38;;;;;;;;;;;;;;;13.37;97.68;99129.05;1645218;84;20097;-71
2022/05/30 03:27:06;;;;;;;;;;;;;;;13.35;98.84;99126.41;1700432;83;20096;-71
2022/05/30 03:29:34;;;;;;;;;;;;;;;13.30;99.16;99125.27;1700491;84;21145;-71
2022/05/30 03:32:02;;;;;;;;;;;;;;;13.27;99.62;99109.44;1700517;84;20121;-71
2022/05/30 03:34:29;;;;;;;;;;;;;;;13.25;99.87;99110.36;1700381;84;20140;-71
2022/05/30 03:36:57;;;;;;;;;;;;;;;13.23;100.00;99118.16;1674657;84;20380;-71
2022/05/30 03:39:44;;;;;;;;;;;;;;;13.24;100.00;99107.38;1695722;84;20097;-72
2022/05/30 03:42:15;;;;;;;;;;;;;;;13.28;100.00;99108.29;1651440;87;21211;-72
2022/05/30 03:44:48;;;;;;;;;;;;;;;13.33;100.00;99106.66;1621418;88;20103;-72
2022/05/30 03:47:15;;;;;;;;;;;;;;;13.37;99.47;99100.68;1654018;87;20130;-73
2022/05/30 03:49:42;;;;;;;;;;;;;;;13.42;99.43;99105.97;1653977;87;20142;-72
2022/05/30 03:52:08;;;;;;;;;;;;;;;13.44;98.41;99112.74;1633276;88;20126;-72
2022/05/30 03:54:36;;;;;;;;;;;;;;;13.44;98.16;99106.42;1654015;86;21542;-71
2022/05/30 03:57:04;;;;;;;;;;;;;;;13.45;97.91;99106.08;1633386;88;20098;-73
2022/05/30 03:59:31;;;;;;;;;;;;;;;13.47;97.55;99118.14;1633256;88;20098;-73
2022/05/30 04:01:59;;;;;;;;;;;;;;;13.44;97.50;99118.26;1650392;86;20159;-74
2022/05/30 04:04:25;;;;;;;;;;;;;;;13.43;97.84;99118.03;1614195;88;20440;-74
2022/05/30 04:06:52;;;;;;;;;;;;;;;13.43;97.75;99118.61;1604543;89;21141;-73
2022/05/30 04:09:18;;;;;;;;;;;;;;;13.41;98.50;99122.28;1611949;89;20092;-72
2022/05/30 04:12:04;;;;;;;;;;;;;;;13.39;98.76;99119.06;1611782;89;20105;-73
2022/05/30 04:14:55;;;;;;;;;;;;;;;13.37;98.99;99127.67;1626668;87;20127;-72
2022/05/30 04:17:24;;;;;;;;;;;;;;;13.33;100.00;99131.47;1611715;88;20435;-72
2022/05/30 04:19:51;;;;;;;;;;;;;;;13.28;100.00;99146.31;1611685;89;22072;-73
2022/05/30 04:22:18;;;;;;;;;;;;;;;13.24;100.00;99156.41;1611733;89;20124;-72
2022/05/30 04:24:55;;;;;;;;;;;;;;;13.19;100.00;99153.30;1599346;87;20459;-72
2022/05/30 04:27:23;;;;;;;;;;;;;;;13.11;100.00;99166.58;1638151;86;20474;-72
2022/05/30 04:29:49;;;;;;;;;;;;;;;13.04;100.00;99187.00;1638274;87;20255;-72
2022/05/30 04:32:17;;;;;;;;;;;;;;;12.99;100.00;99190.54;1634515;86;21834;-72
2022/05/30 04:34:45;;;;;;;;;;;;;;;12.93;100.00;99202.34;1637895;87;20455;-72
2022/05/30 04:37:13;;;;;;;;;;;;;;;12.90;100.00;99194.76;1638358;87;20128;-72
2022/05/30 04:39:41;;;;;;;;;;;;;;;12.89;100.00;99206.92;1638275;87;20605;-74
2022/05/30 04:42:09;;;;;;;;;;;;;;;12.87;100.00;99219.66;1597942;87;20180;-73
2022/05/30 04:44:54;;;;;;;;;;;;;;;12.86;100.00;99218.05;1641052;87;21848;-72
2022/05/30 04:47:42;;;;;;;;;;;;;;;12.85;100.00;99219.77;1540111;92;20155;-72
2022/05/30 04:50:16;;;;;;;;;;;;;;;12.84;100.00;99207.13;1534696;93;20179;-69
2022/05/30 04:52:43;;;;;;;;;;;;;;;12.80;100.00;99216.64;1570412;87;20618;-76
2022/05/30 04:55:28;;;;;;;;;;;;;;;12.76;100.00;99213.52;1642865;87;20122;-77
2022/05/30 04:57:58;;;;;;;;;;;;;;;12.70;100.00;99230.86;1641636;86;22114;-75
2022/05/30 05:00:44;;;;;;;;;;;;;;;12.67;100.00;99247.25;1622968;87;20092;-72
2022/05/30 05:03:11;;;;;;;;;;;;;;;12.64;100.00;99267.20;1658983;86;20121;-73
2022/05/30 05:05:38;;;;;;;;;;;;;;;12.61;100.00;99268.67;1644954;87;20090;-74
2022/05/30 05:08:06;;;;;;;;;;;;;;;12.58;100.00;99263.03;1644954;86;20178;-73
2022/05/30 05:10:55;;;;;;;;;;;;;;;12.57;100.00;99252.59;1657721;86;22183;-73
2022/05/30 05:13:32;;;;;;;;;;;;;;;12.58;100.00;99252.02;1630163;87;20130;-74
2022/05/30 05:16:06;;;;;;;;;;;;;;;12.58;100.00;99256.95;1647372;86;20137;-75
2022/05/30 05:18:34;;;;;;;;;;;;;;;12.60;100.00;99252.49;1635126;86;20485;-72
2022/05/30 05:21:00;;;;;;;;;;;;;;;12.62;100.00;99263.98;1657991;86;20198;-71
2022/05/30 05:23:29;;;;;;;;;;;;;;;12.64;100.00;99247.92;1632961;88;21051;-71
2022/05/30 05:25:57;;;;;;;;;;;;;;;12.67;100.00;99245.87;1639972;87;20127;-71
2022/05/30 05:28:34;;;;;;;;;;;;;;;12.67;100.00;99231.53;1640977;87;20123;-71
2022/05/30 05:31:01;;;;;;;;;;;;;;;12.69;100.00;99239.46;1641163;87;20196;-72
2022/05/30 05:33:28;;;;;;;;;;;;;;;12.66;100.00;99237.38;1641223;87;20454;-73
2022/05/30 05:35:54;;;;;;;;;;;;;;;12.65;100.00;99222.80;1641253;87;21141;-73
2022/05/30 05:38:21;;;;;;;;;;;;;;;12.65;100.00;99233.02;1629206;87;20117;-72
2022/05/30 05:40:58;;;;;;;;;;;;;;;12.63;100.00;99232.55;1647963;86;20464;-72
2022/05/30 05:43:27;;;;;;;;;;;;;;;12.61;100.00;99219.68;1664206;86;20320;-71
2022/05/30 05:45:54;;;;;;;;;;;;;;;12.60;100.00;99223.01;1664152;86;20153;-76
2022/05/30 05:48:22;;;;;;;;;;;;;;;12.58;100.00;99227.23;1664440;86;22629;-72
2022/05/30 05:50:50;;;;;;;;;;;;;;;12.56;100.00;99211.86;1664099;86;20129;-73
2022/05/30 05:53:16;;;;;;;;;;;;;;;12.55;100.00;99199.80;1664506;86;20130;-74
2022/05/30 05:55:44;;;;;;;;;;;;;;;12.60;100.00;99185.03;1664158;86;20114;-75
2022/05/30 05:58:10;;;;;;;;;;;;;;;12.61;100.00;99173.67;1637464;86;20495;-76
2022/05/30 06:00:38;;;;;;;;;;;;;;;12.63;100.00;99154.87;1664185;86;21785;-79
2022/05/30 06:03:05;;;;;;;;;;;;;;;12.64;100.00;99168.88;1664087;86;20557;-74
2022/05/30 06:05:40;;;;;;;;;;;;;;;12.63;100.00;99158.19;1659425;86;20093;-73
2022/05/30 06:08:11;;;;;;;;;;;;;;;12.61;100.00;99150.84;1662890;86;20102;-73
2022/05/30 06:11:11;;;;;;;;;;;;;;;12.62;100.00;99133.17;1662145;86;20127;-78
2022/05/30 06:13:42;;;;;;;;;;;;;;;12.63;100.00;99134.22;1664550;86;21541;-73
2022/05/30 06:16:18;;;;;;;;;;;;;;;12.65;100.00;99131.92;1663146;86;20102;-74
2022/05/30 06:18:47;;;;;;;;;;;;;;;12.66;100.00;99140.99;1662536;86;20118;-74
2022/05/30 06:21:13;;;;;;;;;;;;;;;12.66;100.00;99132.73;1664135;86;20122;-79
2022/05/30 06:23:45;;;;;;;;;;;;;;;12.63;100.00;99118.27;1663721;86;20086;-78
2022/05/30 06:26:12;;;;;;;;;;;;;;;12.59;100.00;99094.73;1664211;86;21808;-77
2022/05/30 06:28:41;;;;;;;;;;;;;;;12.58;100.00;99090.37;1661026;86;20106;-78
2022/05/30 06:31:16;;;;;;;;;;;;;;;12.56;100.00;99083.83;1658207;86;20478;-73
2022/05/30 06:33:44;;;;;;;;;;;;;;;12.60;100.00;99073.51;1648855;86;20141;-72
2022/05/30 06:36:14;;;;;;;;;;;;;;;12.66;100.00;99056.43;1637003;87;20084;-71
2022/05/30 06:38:41;;;;;;;;;;;;;;;12.72;100.00;99048.15;1640051;86;21274;-72
2022/05/30 06:41:10;;;;;;;;;;;;;;;12.79;100.00;99045.64;1634999;86;20176;-73
2022/05/30 06:43:37;;;;;;;;;;;;;;;12.87;100.00;99048.86;1611728;89;20143;-73
2022/05/30 06:46:22;;;;;;;;;;;;;;;12.94;100.00;99055.19;1611786;89;20272;-73
2022/05/30 06:48:59;;;;;;;;;;;;;;;13.02;100.00;99053.47;1574270;90;20097;-71
2022/05/30 06:51:37;;;;;;;;;;;;;;;13.08;100.00;99046.58;1589676;89;21190;-71
2022/05/30 06:54:05;;;;;;;;;;;;;;;13.05;100.00;99048.65;1611685;88;20108;-72
2022/05/30 06:56:35;;;;;;;;;;;;;;;12.99;100.00;99036.25;1611751;87;20105;-71
2022/05/30 06:59:01;;;;;;;;;;;;;;;12.95;100.00;99034.75;1610921;87;20187;-70
2022/05/30 07:01:32;;;;;;;;;;;;;;;12.92;100.00;99036.81;1611859;89;20479;-76
2022/05/30 07:04:17;;;;;;;;;;;;;;;12.93;100.00;99046.69;1611805;89;21274;-74
2022/05/30 07:07:07;;;;;;;;;;;;;;;12.98;100.00;99045.66;1611767;89;20445;-71
2022/05/30 07:09:44;;;;;;;;;;;;;;;12.98;100.00;99042.91;1593071;89;20477;-71
2022/05/30 07:12:16;;;;;;;;;;;;;;;12.96;100.00;99032.23;1633768;87;20223;-71
2022/05/30 07:14:44;;;;;;;;;;;;;;;12.95;100.00;99043.59;1637758;87;20159;-69
2022/05/30 07:17:11;;;;;;;;;;;;;;;12.92;100.00;99047.84;1637864;87;21233;-69
2022/05/30 07:19:38;;;;;;;;;;;;;;;12.93;100.00;99052.77;1626299;87;20122;-68
2022/05/30 07:22:07;;;;;;;;;;;;;;;12.91;100.00;99046.23;1637902;87;20106;-66
2022/05/30 07:24:54;;;;;;;;;;;;;;;12.90;100.00;99054.27;1635394;87;20209;-72
2022/05/30 07:27:41;;;;;;;;;;;;;;;12.89;100.00;99054.03;1636126;86;20122;-68
2022/05/30 07:30:27;;;;;;;;;;;;;;;12.89;100.00;99060.92;1637973;86;21322;-68
2022/05/30 07:33:12;;;;;;;;;;;;;;;12.90;100.00;99059.77;1637864;87;20090;-67
2022/05/30 07:35:57;;;;;;;;;;;;;;;12.93;100.00;99067.34;1637858;87;20094;-67
2022/05/30 07:38:41;;;;;;;;;;;;;;;12.99;100.00;99073.44;1606800;87;20086;-68
2022/05/30 07:41:09;;;;;;;;;;;;;;;13.03;100.00;99075.74;1620970;86;20403;-68
2022/05/30 07:43:45;;;;;;;;;;;;;;;13.04;100.00;99082.29;1640585;87;21855;-68
2022/05/30 07:46:14;;;;;;;;;;;;;;;13.09;100.00;99079.88;1640073;87;20469;-68
2022/05/30 07:48:43;;;;;;;;;;;;;;;13.12;100.00;99085.52;1574178;89;20082;-69
2022/05/30 07:51:28;;;;;;;;;;;;;;;13.21;100.00;99079.34;1629453;87;20172;-68
2022/05/30 07:53:57;;;;;;;;;;;;;;;13.34;100.00;99080.70;1618086;87;20463;-67
2022/05/30 07:56:34;;;;;;;;;;;;;;;13.44;100.00;99073.34;1639965;87;21195;-70
2022/05/30 07:59:02;;;;;;;;;;;;;;;13.52;100.00;99080.11;1641961;87;20421;-69
2022/05/30 08:01:29;;;;;;;;;;;;;;;13.61;100.00;99070.91;1627316;86;20129;-68
2022/05/30 08:03:57;;;;;;;;;;;;;;;13.67;100.00;99075.84;1618043;88;20105;-66
2022/05/30 08:06:30;;;;;;;;;;;;;;;13.73;100.00;99069.52;1581848;89;20145;-67
2022/05/30 08:09:10;;;;;;;;;;;;;;;13.77;100.00;99080.08;1612004;88;21182;-68
2022/05/30 08:11:41;;;;;;;;;;;;;;;13.82;100.00;99084.78;1616982;87;20180;-70
2022/05/30 08:14:10;;;;;;;;;;;;;;;13.87;100.00;99083.70;1625015;86;20453;-64
2022/05/30 08:16:37;;;;;;;;;;;;;;;13.90;100.00;99078.87;1633399;88;20127;-66
2022/05/30 08:19:05;;;;;;;;;;;;;;;13.97;100.00;99075.52;1641121;87;20429;-66
2022/05/30 08:21:32;;;;;;;;;;;;;;;14.02;100.00;99078.03;1633064;87;21157;-66
2022/05/30 08:23:59;;;;;;;;;;;;;;;14.10;100.00;99083.99;1633195;87;20104;-64
2022/05/30 08:26:26;;;;;;;;;;;;;;;14.22;100.00;99083.95;1622088;87;20495;-65
2022/05/30 08:28:54;;;;;;;;;;;;;;;14.45;100.00;99077.30;1612901;87;20125;-65
2022/05/30 08:31:20;;;;;;;;;;;;;;;14.75;100.00;99084.63;1616376;89;20092;-65
2022/05/30 08:33:49;;;;;;;;;;;;;;;15.04;100.00;99086.95;1616410;87;21182;-67
2022/05/30 08:36:29;;;;;;;;;;;;;;;15.35;100.00;99085.33;1598545;88;20104;-66
2022/05/30 08:41:46;;;;;;;;;;;;;;;15.64;100.00;99075.16;1616324;87;20114;-66
2022/05/30 08:44:12;;;;;;;;;;;;;;;15.98;100.00;99065.24;1614060;88;20092;-66
2022/05/30 08:46:57;;;;;;;;;;;;;;;16.07;100.00;99064.45;1613075;88;21377;-68
2022/05/30 08:49:34;;;;;;;;;;;;;;;16.30;100.00;99067.27;1614289;88;20125;-67
2022/05/30 08:52:28;;;;;;;;;;;;;;;16.51;100.00;99071.84;1614588;87;20457;-66
2022/05/30 08:55:16;;;;;;;;;;;;;;;16.55;100.00;99077.45;1614598;88;20132;-67
2022/05/30 08:57:48;;;;;;;;;;;;;;;16.62;100.00;99062.94;1609350;87;20156;-68
2022/05/30 09:00:20;;;;;;;;;;;;;;;16.83;100.00;99053.63;1590651;88;21362;-67
2022/05/30 09:03:06;;;;;;;;;;;;;;;17.11;99.74;99053.31;1527979;92;20099;-69
2022/05/30 09:05:55;;;;;;;;;;;;;;;17.52;96.20;99059.89;1585827;90;20454;-68
2022/05/30 09:08:26;;;;;;;;;;;;;;;17.57;91.50;99061.55;1586020;89;20106;-68
2022/05/30 09:10:59;;;;;;;;;;;;;;;17.57;93.50;99060.95;1575872;90;20180;-68
2022/05/30 09:13:46;;;;;;;;;;;;;;;17.71;92.02;99068.13;1585883;89;21337;-68
2022/05/30 09:16:37;;;;;;;;;;;;;;;17.87;89.14;99073.52;1586107;89;20429;-70
2022/05/30 09:19:08;;;;;;;;;;;;;;;17.98;90.86;99057.77;1601007;88;20084;-69
2022/05/30 09:21:35;;;;;;;;;;;;;;;18.05;90.10;99064.81;1601509;88;20092;-69
2022/05/30 09:24:02;;;;;;;;;;;;;;;17.86;87.17;99060.02;1603854;88;20112;-67
2022/05/30 09:26:35;;;;;;;;;;;;;;;17.76;90.14;99067.81;1614647;87;21282;-68
2022/05/30 09:29:39;;;;;;;;;;;;;;;17.90;89.94;99065.83;1602415;89;20140;-69
2022/05/30 09:32:30;;;;;;;;;;;;;;;18.24;87.06;99069.41;1573295;88;20176;-68
2022/05/30 09:35:19;;;;;;;;;;;;;;;18.24;85.02;99058.89;1610025;89;20826;-70
2022/05/30 09:37:51;;;;;;;;;;;;;;;18.21;88.25;99060.45;1612255;87;20192;-67
2022/05/30 09:40:19;;;;;;;;;;;;;;;18.44;89.49;99052.78;1602270;88;21161;-69
2022/05/30 09:42:55;;;;;;;;;;;;;;;18.78;85.37;99039.64;1613120;87;20156;-68
2022/05/30 09:45:27;;;;;;;;;;;;;;;19.17;85.08;99039.77;1613835;88;20184;-68
2022/05/30 09:48:05;;;;;;;;;;;;;;;19.69;85.68;99025.42;1596465;88;20128;-68
2022/05/30 09:50:42;;;;;;;;;;;;;;;20.17;79.78;99030.03;1612745;88;20181;-69
2022/05/30 09:53:09;;;;;;;;;;;;;;;19.93;76.76;99025.35;1611471;88;21862;-70
2022/05/30 09:55:43;;;;;;;;;;;;;;;19.53;77.58;99035.29;1613276;89;20128;-71
2022/05/30 09:58:11;;;;;;;;;;;;;;;19.28;80.29;99032.30;1613286;87;20156;-74
2022/05/30 10:00:48;;;;;;;;;;;;;;;19.30;81.07;99022.97;1613766;88;20165;-71
2022/05/30 10:03:33;;;;;;;;;;;;;;;19.43;81.51;99036.78;1613520;88;20181;-68
2022/05/30 10:06:21;;;;;;;;;;;;;;;19.62;79.55;99025.41;1613188;87;21170;-68
2022/05/30 10:08:49;;;;;;;;;;;;;;;19.66;79.58;99023.42;1613191;88;20136;-67
2022/05/30 10:11:30;;;;;;;;;;;;;;;19.56;78.09;99031.73;1613105;88;20152;-69
2022/05/30 10:13:58;;;;;;;;;;;;;;;19.37;79.91;99034.95;1610578;89;20113;-68
2022/05/30 10:16:33;;;;;;;;;;;;;;;19.26;81.35;99031.29;1612080;88;20104;-67
2022/05/30 10:19:06;;;;;;;;;;;;;;;19.17;78.29;99024.45;1612514;89;21892;-69
2022/05/30 10:28:16;;;;;;;;;;;;;;;19.39;79.48;99016.48;1612975;87;20138;-68
2022/05/30 10:31:27;;;;;;;;;;;;;;;19.19;80.00;99011.76;1613199;89;20209;-65
2022/05/30 10:34:19;;;;;;;;;;;;;;;18.94;81.48;99016.34;1613396;88;21188;-64
2022/05/30 10:37:08;;;;;;;;;;;;;;;18.76;82.83;99027.30;1613261;88;20137;-66
2022/05/30 10:39:44;;;;;;;;;;;;;;;18.61;85.00;99015.84;1587735;89;20442;-66
2022/05/30 10:42:24;;;;;;;;;;;;;;;18.52;85.61;99023.65;1598641;88;20088;-68
2022/05/30 10:44:54;;;;;;;;;;;;;;;18.37;84.77;99029.67;1615273;87;20175;-67
2022/05/30 10:47:28;;;;;;;;;;;;;;;18.22;86.43;99030.09;1615449;89;21752;-72
2022/05/30 10:50:09;;;;;;;;;;;;;;;18.17;86.82;99038.77;1615055;88;20179;-66
2022/05/30 10:52:42;;;;;;;;;;;;;;;18.11;85.61;99041.67;1615010;88;20156;-66
2022/05/30 10:55:14;;;;;;;;;;;;;;;18.11;83.97;99043.06;1614996;87;20168;-67
2022/05/30 10:57:47;;;;;;;;;;;;;;;18.19;83.80;99041.17;1615125;89;20156;-67
2022/05/30 11:00:16;;;;;;;;;;;;;;;18.24;79.52;99029.72;1640979;87;21187;-71
2022/05/30 11:03:12;;;;;;;;;;;;;;;18.26;78.57;99030.94;1638047;86;20177;-67
2022/05/30 11:05:56;;;;;;;;;;;;;;;18.28;77.78;99036.92;1614221;87;20123;-67
2022/05/30 11:08:57;;;;;;;;;;;;;;;18.29;77.41;99044.08;1615023;89;20128;-68
2022/05/30 11:11:35;;;;;;;;;;;;;;;18.29;77.12;99046.05;1641636;87;20207;-69
2022/05/30 11:14:30;;;;;;;;;;;;;;;18.28;76.40;99043.86;1638794;87;21803;-67
2022/05/30 11:17:27;;;;;;;;;;;;;;;18.26;76.21;99051.78;1640425;87;20164;-72
2022/05/30 11:20:15;;;;;;;;;;;;;;;18.19;74.03;99047.52;1639787;87;20459;-66
2022/05/30 11:22:52;;;;;;;;;;;;;;;18.11;73.56;99043.06;1639100;87;20204;-64
2022/05/30 11:25:25;;;;;;;;;;;;;;;18.01;74.11;99047.30;1640181;87;20140;-67
2022/05/30 11:28:11;;;;;;;;;;;;;;;17.92;74.28;99044.59;1631872;86;21133;-67
2022/05/30 11:30:48;;;;;;;;;;;;;;;17.84;74.43;99051.25;1639697;87;20146;-68
2022/05/30 11:33:35;;;;;;;;;;;;;;;17.86;75.11;99046.13;1632793;87;20118;-67
2022/05/30 11:36:39;;;;;;;;;;;;;;;17.93;75.99;99033.70;1640267;87;20114;-66
2022/05/30 11:39:26;;;;;;;;;;;;;;;18.06;76.22;99029.50;1641070;87;20141;-66
2022/05/30 11:42:12;;;;;;;;;;;;;;;18.20;75.72;99033.05;1643411;86;21132;-66
2022/05/30 11:44:42;;;;;;;;;;;;;;;18.26;75.04;99023.20;1658941;86;20146;-65
2022/05/30 11:47:27;;;;;;;;;;;;;;;18.35;76.62;99021.72;1647847;86;20152;-67
2022/05/30 11:49:58;;;;;;;;;;;;;;;18.51;76.56;99017.30;1636441;86;20136;-66
2022/05/30 11:52:46;;;;;;;;;;;;;;;18.69;76.37;99021.09;1649231;86;20134;-67
2022/05/30 11:55:27;;;;;;;;;;;;;;;18.77;77.63;99015.80;1674984;85;21163;-67
2022/05/30 11:58:00;;;;;;;;;;;;;;;18.75;76.71;99023.73;1646198;87;20185;-73
2022/05/30 12:00:35;;;;;;;;;;;;;;;18.66;77.70;99012.13;1646251;86;20154;-66
2022/05/30 12:03:22;;;;;;;;;;;;;;;18.64;79.02;99011.70;1628639;87;20119;-67
2022/05/30 12:05:56;;;;;;;;;;;;;;;18.75;80.23;99015.98;1647784;85;20152;-67
2022/05/30 12:08:50;;;;;;;;;;;;;;;18.84;79.70;98999.77;1664976;84;21156;-68
2022/05/30 12:11:41;;;;;;;;;;;;;;;18.88;79.99;99008.95;1690302;82;20937;-66
2022/05/30 12:14:26;;;;;;;;;;;;;;;18.94;79.75;99010.78;1641994;87;20151;-68
2022/05/30 12:17:13;;;;;;;;;;;;;;;18.96;80.51;99006.44;1656892;85;20139;-68
2022/05/30 12:25:41;;;;;;;;;;;;;;;18.77;79.68;99010.24;1674507;85;20197;-71
2022/05/30 12:28:29;;;;;;;;;;;;;;;18.69;80.30;99006.39;1673070;84;20489;-67
2022/05/30 12:30:58;;;;;;;;;;;;;;;18.68;80.93;99011.73;1685746;84;20139;-68
2022/05/30 12:33:36;;;;;;;;;;;;;;;18.77;81.38;99005.27;1676449;83;20728;-66
2022/05/30 12:36:13;;;;;;;;;;;;;;;18.88;81.69;99015.10;1664481;84;21121;-67
2022/05/30 12:38:57;;;;;;;;;;;;;;;18.98;82.45;99011.02;1692921;83;20099;-68
2022/05/30 12:41:34;;;;;;;;;;;;;;;19.09;81.80;99018.04;1681704;84;20151;-66
2022/05/30 12:44:00;;;;;;;;;;;;;;;19.08;80.91;99014.45;1673326;86;20131;-65
2022/05/30 12:46:31;;;;;;;;;;;;;;;19.01;80.35;99008.86;1672603;86;20154;-67
2022/05/30 12:49:00;;;;;;;;;;;;;;;18.97;80.35;99006.64;1664294;85;21285;-66
2022/05/30 12:51:38;;;;;;;;;;;;;;;18.89;80.04;99007.77;1640725;86;20187;-68
2022/05/30 12:54:11;;;;;;;;;;;;;;;18.83;80.54;99000.95;1670018;84;20412;-68
2022/05/30 12:56:49;;;;;;;;;;;;;;;18.80;81.12;99007.28;1673142;86;20111;-68
2022/05/30 12:59:18;;;;;;;;;;;;;;;18.83;81.29;99002.34;1671840;86;20448;-68
2022/05/30 13:01:49;;;;;;;;;;;;;;;18.80;80.22;99005.89;1673142;85;20805;-68
2022/05/30 13:04:22;;;;;;;;;;;;;;;18.76;81.09;99008.64;1672971;85;20152;-68
2022/05/30 13:07:02;;;;;;;;;;;;;;;18.78;81.43;99017.98;1673045;86;20455;-69
2022/05/30 13:09:36;;;;;;;;;;;;;;;18.82;81.19;99011.88;1673391;85;20339;-68
2022/05/30 13:12:19;;;;;;;;;;;;;;;18.84;81.80;99005.34;1663637;84;20295;-68
2022/05/30 13:14:53;;;;;;;;;;;;;;;18.88;81.17;99011.73;1705553;84;21958;-67
2022/05/30 13:17:24;;;;;;;;;;;;;;;18.95;82.26;99006.82;1712304;83;20106;-67
2022/05/30 13:20:03;;;;;;;;;;;;;;;19.07;81.34;99013.45;1711302;84;20428;-68
2022/05/30 13:22:54;;;;;;;;;;;;;;;19.13;80.82;99015.48;1712212;84;20209;-67
2022/05/30 13:25:33;;;;;;;;;;;;;;;19.19;81.11;99019.31;1712342;83;20158;-68
2022/05/30 13:28:06;;;;;;;;;;;;;;;19.29;81.01;99016.61;1711422;83;21227;-67
2022/05/30 13:30:33;;;;;;;;;;;;;;;19.38;80.72;99012.09;1691340;84;20518;-68
2022/05/30 13:33:00;;;;;;;;;;;;;;;19.38;79.97;98999.57;1651715;85;20140;-68
2022/05/30 13:35:29;;;;;;;;;;;;;;;19.34;79.76;98998.75;1683618;85;20108;-68
2022/05/30 13:38:02;;;;;;;;;;;;;;;19.30;79.41;98995.94;1700429;84;20145;-69
2022/05/30 13:40:31;;;;;;;;;;;;;;;19.29;79.93;98996.33;1683118;85;21251;-69